Terminal Aerodrome Forecast
Issued by NWS

Home | Current Version | Previous Version | Text Only | Print | Product List | Glossary On
Versions: 1 2 3 4 5 6 7 8 9 10 11 12 13 14 15 16 17 18 19 20 21 22 23 24 25 26 27 28 29 30
000
FTUS43 KGRB 240916 AAA
TAFRHI
TAF AMD
KRHI 240916Z 2409/2506 21005KT P6SM -RA BKN040 BKN080
      TEMPO 2409/2412 3SM -TSRA BKN025CB
     FM241500 24008G15KT P6SM VCSH SCT035 BKN060
     FM242200 34005KT P6SM SCT015 BKN030=

USA.gov is the U.S. government's official web portal to all federal, state and local government web resources and services.